Home > Products > Valid Products > TAF

000
FTUS46 KEKA 211132
TAFUKI
TAF
KUKI 211132Z 2112/2212 VRB03KT 4SM BR SCT007 OVC015
     FM220300 VRB03KT P6SM OVC025=



000
FTUS46 KEKA 211132
TAFCEC
TAF
KCEC 211132Z 2112/2212 21010KT 3SM -RA OVC005
     FM211500 22010KT 5SM -RA BR BKN010 OVC025
     FM220300 22006KT 5SM BR OVC025=



000
FTUS46 KEKA 211132
TAFACV
TAF
KACV 211132Z 2112/2212 19008KT 3SM -RA BR BKN008 OVC015
     FM211500 22006KT 5SM -RA BR BKN025 OVC050
     FM220300 24003KT 5SM BR OVC025=



000
FTUS46 KEKA 210535
TAFACV
TAF
KACV 210535Z 2106/2206 16006KT 2SM -RA BR OVC008
      TEMPO 2106/2108 2SM RA BR OVC008
     FM210900 20009KT 4SM -RA BR SCT015 OVC020
     FM211500 27005KT 5SM -RA BR SCT020 OVC050
     FM220200 24003KT 5SM BR OVC020=



000
FTUS46 KEKA 210535
TAFUKI
TAF
KUKI 210535Z 2106/2206 17005KT 6SM BR FEW008 OVC014
      TEMPO 2106/2108 3SM -RA BKN010
     FM210900 27003KT 6SM -RA BR OVC015
     FM211300 30003KT 5SM -DZ BR SCT007 OVC015
     FM220200 30003KT P6SM OVC025=



000
FTUS46 KEKA 210535
TAFCEC
TAF
KCEC 210535Z 2106/2206 20014KT 1 1/2SM -RA BR OVC004
     FM211100 18010KT 5SM -RA SCT007 OVC015
     FM211700 19012KT 4SM -RA SCT007 OVC015
     FM220200 19003KT 5SM BR OVC020=



000
FTUS46 KEKA 210502 AAC
TAFACV
TAF AMD
KACV 210502Z 2105/2124 17010KT 4SM RA BR SCT008 OVC015
      TEMPO 2105/2108 2SM RA BR OVC008
     FM210900 20009KT 4SM -RA BR SCT015 OVC020
     FM211500 27005KT 5SM BR SCT020 OVC050=



000
FTUS46 KEKA 210502 AAC
TAFACV
TAF AMD
KACV 210502Z 2105/2124 17010KT 4SM RA BR SCT008 OVC015
      TEMPO 2105/2108 2SM RA BR OVC008
     FM210900 20009KT 4SM -RA BR SCT015 OVC020
     FM211500 27005KT 5SM BR SCT020 OVC050=



000
FTUS46 KEKA 210343 AAB
TAFCEC
TAF AMD
KCEC 210343Z 2104/2124 19011KT 2SM RA BR OVC002
     FM211100 18010KT 5SM -RA SCT007 OVC015
     FM211700 19012KT 4SM -RA SCT007 OVC015=



000
FTUS46 KEKA 210343 AAB
TAFCEC
TAF AMD
KCEC 210343Z 2104/2124 19011KT 2SM RA BR OVC002
     FM211100 18010KT 5SM -RA SCT007 OVC015
     FM211700 19012KT 4SM -RA SCT007 OVC015=



000
FTUS46 KEKA 210337 AAB
TAFACV
TAF AMD
KACV 210337Z 2104/2124 14012G18KT 4SM RA BR SCT008 OVC015
      TEMPO 2104/2108 2SM RA BR OVC008
     FM210900 20009KT 4SM -RA BR SCT015 OVC020
     FM211500 27005KT 5SM BR SCT020 OVC050=



000
FTUS46 KEKA 210337 AAB
TAFACV
TAF AMD
KACV 210337Z 2104/2124 14012G18KT 4SM RA BR SCT008 OVC015
      TEMPO 2104/2108 2SM RA BR OVC008
     FM210900 20009KT 4SM -RA BR SCT015 OVC020
     FM211500 27005KT 5SM BR SCT020 OVC050=



000
FTUS46 KEKA 210332 AAB
TAFUKI
TAF AMD
KUKI 210332Z 2104/2124 18006KT 5SM -RA BR FEW015 OVC025
      TEMPO 2104/2108 3SM RA BKN010
     FM210900 27003KT 6SM BR OVC015
     FM211300 30003KT 5SM -DZ BR SCT007 OVC015=



000
FTUS46 KEKA 210332 AAB
TAFUKI
TAF AMD
KUKI 210332Z 2104/2124 18006KT 5SM -RA BR FEW015 OVC025
      TEMPO 2104/2108 3SM RA BKN010
     FM210900 27003KT 6SM BR OVC015
     FM211300 30003KT 5SM -DZ BR SCT007 OVC015=



000
FTUS46 KEKA 210253 AAA
TAFUKI
TAF AMD
KUKI 210253Z 2103/2124 18008KT 3SM -RA BR FEW015 OVC020
      TEMPO 2103/2104 2SM RA BKN010
     FM210400 16004KT 4SM -RA BR BKN015 OVC025
     FM210900 27003KT 6SM BR OVC015
     FM211300 30003KT 5SM -DZ BR SCT007 OVC015=



000
FTUS46 KEKA 210252 AAA
TAFACV
TAF AMD
KACV 210252Z 2103/2124 14012G18KT 2SM RA BR SCT008 OVC015
      TEMPO 2103/2104 1SM RA BKN008
     FM210600 18011KT 4SM -RA BR SCT008 OVC015
     FM210900 20009KT 4SM -RA BR SCT015 OVC020
     FM211500 27005KT 5SM BR SCT020 OVC050=



000
FTUS46 KEKA 210246 AAA
TAFCEC
TAF AMD
KCEC 210246Z 2103/2124 20012KT 2SM -RA BR OVC004
      TEMPO 2103/2104 2SM -RA
     FM210600 17018G25KT 4SM -RA SCT005 BKN015 OVC025
     FM211100 18010KT 5SM -RA SCT007 OVC015
     FM211700 19012KT 4SM -RA SCT007 OVC015=



000
FTUS46 KEKA 202343
TAFUKI
TAF
KUKI 202343Z 2100/2124 18008KT 3SM -RA BR FEW015 OVC025
      TEMPO 2100/2104 2SM RA BKN015
     FM210400 16004KT 4SM -RA BR BKN015 OVC025
     FM210900 27003KT 6SM BR OVC015
     FM211300 30003KT 5SM -DZ BR SCT007 OVC015=



000
FTUS46 KEKA 202343
TAFCEC
TAF
KCEC 202343Z 2100/2124 17020G35KT 1SM RA BR BKN005 OVC015
      TEMPO 2100/2104 2SM -RA
     FM210600 17018G25KT 4SM -RA SCT005 BKN015 OVC025
     FM211100 18010KT 5SM -RA SCT007 OVC015
     FM211700 19012KT 4SM -RA SCT007 OVC015=



000
FTUS46 KEKA 202343
TAFACV
TAF
KACV 202343Z 2100/2124 14012G18KT 2SM RA BR SCT008 OVC020
      TEMPO 2100/2104 1SM RA BKN008
     FM210600 18011KT 4SM -RA BR SCT008 OVC015
     FM210900 20009KT 4SM -RA BR SCT015 OVC020
     FM211500 27005KT 5SM BR SCT020 OVC050=



000
FTUS46 KEKA 202214 AAA
TAFUKI
TAF AMD
KUKI 202214Z 2022/2118 18008KT 5SM -RA BR FEW015 BKN025 OVC035
     FM210300 16004KT 4SM -RA BR BKN015 OVC025
     FM210900 27003KT 6SM BR OVC015
     FM211300 30003KT 5SM -DZ BR SCT007 OVC015=



000
FTUS46 KEKA 202213 AAA
TAFACV
TAF AMD
KACV 202213Z 2022/2118 14012G18KT 2SM RA BR SCT008 OVC025
     FM210300 15006KT 6SM -RA BR OVC020
     FM210900 19009KT 4SM -RA BR OVC020
     FM211500 27005KT 5SM BR SCT020 OVC050=



000
FTUS46 KEKA 202211 AAA
TAFCEC
TAF AMD
KCEC 202211Z 2022/2118 17025G35KT 2SM -RA BR BKN015 OVC025
     FM210300 17011KT 5SM -RA BKN015 OVC025
     FM211000 18010KT 5SM -RA SCT007 OVC015=



000
FTUS46 KEKA 201746
TAFUKI
TAF
KUKI 201746Z 2018/2118 18003KT 6SM -RA BR BKN025 OVC035
     FM202300 16004KT 4SM -RA BR BKN015 OVC025
     FM210900 27003KT 6SM BR OVC015
     FM211300 30003KT 5SM -DZ BR SCT007 OVC015=



000
FTUS46 KEKA 201746
TAFCEC
TAF
KCEC 201746Z 2018/2118 17025G35KT 5SM -RA BR BKN015 OVC025
      TEMPO 2018/2022 2SM RA BR
     FM202300 17015G25KT 3SM RA BR SCT007 BKN015 OVC025
     FM210300 17011KT 5SM -RA BKN015 OVC025
     FM211000 18010KT 5SM -RA SCT007 OVC015=



000
FTUS46 KEKA 201746
TAFACV
TAF
KACV 201746Z 2018/2118 16010KT 6SM -RA BR FEW025 OVC050
     FM202200 17009KT 2SM RA BR SCT008 OVC015
     FM210300 15006KT 6SM -RA BR OVC020
     FM210900 19009KT 4SM -RA BR OVC020
     FM211500 27005KT 5SM BR SCT020 OVC050=



000
FTUS46 KEKA 201145
TAFCEC
TAF
KCEC 201145Z 2012/2112 17020G30KT 3SM RA BR BKN015 OVC025
     FM201600 17025G35KT 3SM RA BR BKN012 OVC025
     FM202200 17015G25KT 3SM RA BR BKN015 OVC025
     FM210300 17011KT 5SM -RA BKN015 OVC025=



000
FTUS46 KEKA 201145
TAFUKI
TAF
KUKI 201145Z 2012/2112 VRB03KT P6SM VCSH OVC010
     FM201400 15003KT 6SM -RA BR SCT010 OVC025
     FM201800 16004KT 5SM RA BR SCT008 OVC015=



000
FTUS46 KEKA 201145
TAFACV
TAF
KACV 201145Z 2012/2112 16012G20KT 3SM RA BR SCT015 OVC025
     FM202200 17009KT 2SM RA BR SCT008 OVC015
     FM210300 15006KT 6SM -RA BR OVC020=



000
FTUS46 KEKA 200555
TAFUKI
TAF
KUKI 200555Z 2006/2106 31003KT P6SM SCT010 BKN021 OVC040
      TEMPO 2006/2010 BKN010
     FM201000 VRB03KT P6SM VCSH SCT020 BKN040
     FM201500 15003KT 5SM -RA BR SCT020 OVC040
     FM210300 VRB03KT 6SM -RA BR OVC025=



000
FTUS46 KEKA 200555
TAFACV
TAF
KACV 200555Z 2006/2106 13005KT P6SM -RA FEW040 OVC060
     FM200900 15010G18KT 6SM -RA SCT015 BKN040
     FM201500 16012G20KT 4SM RA SCT012 OVC025
     FM202000 15008KT 2SM RA BR SCT008 OVC015
     FM210300 15005KT 6SM -RA BR OVC020=



000
FTUS46 KEKA 200555
TAFCEC
TAF
KCEC 200555Z 2006/2106 15015KT 4SM RA BR VCSH FEW035 BKN045 OVC060
      TEMPO 2006/2010 5SM -RA BR BKN025
     FM201000 16015G25KT 6SM -RA SCT015 OVC030
     FM201700 17022G30KT 4SM RA SCT012 OVC025
     FM202200 17015G25KT 2SM RA SCT008 OVC015
     FM210300 17012KT 5SM -RA BKN015 OVC025=



000
FTUS46 KEKA 200329 AAA
TAFUKI
TAF AMD
KUKI 200329Z 2003/2024 32003KT P6SM BKN040
      TEMPO 2003/2007 BKN025
     FM200900 VRB03KT P6SM VCSH SCT020 BKN040
     FM201500 15003KT 4SM -RA BR SCT020 OVC040=



000
FTUS46 KEKA 200328 AAA
TAFCEC
TAF AMD
KCEC 200328Z 2003/2024 16013G19KT P6SM -RA VCSH SCT020 BKN030
      OVC045
      TEMPO 2003/2007 5SM -RA BR BKN020
     FM200700 16015G25KT 6SM -RA SCT015 OVC030
     FM201700 17022G30KT 4SM RA SCT012 OVC025
     FM202200 17015G25KT 2SM RA SCT008 OVC015=



000
FTUS46 KEKA 192346
TAFUKI
TAF
KUKI 192346Z 2000/2024 32003KT P6SM BKN040
     FM200900 VRB03KT P6SM VCSH SCT020 BKN040
     FM201500 15003KT 4SM -RA BR SCT020 OVC040=



000
FTUS46 KEKA 192346
TAFCEC
TAF
KCEC 192346Z 2000/2024 17010KT P6SM VCSH SCT020 BKN040
     FM200600 16015G25KT 6SM -RA SCT015 OVC030
     FM201700 17022G30KT 4SM RA SCT012 OVC025
     FM202200 17015G25KT 2SM RA SCT008 OVC015=



000
FTUS46 KEKA 192346
TAFACV
TAF
KACV 192346Z 2000/2024 16006KT P6SM VCSH SCT025 BKN080
     FM200600 14008KT 6SM -RA BR SCT015 BKN040
     FM200900 15010G18KT 6SM -RA SCT015 BKN040
     FM201500 16012G20KT 4SM RA SCT012 OVC025
     FM202000 15008KT 2SM RA BR SCT008 OVC015=



000
FTUS46 KEKA 191818 AAA
TAFCEC
TAF AMD
KCEC 191818Z 1918/2018 16009KT P6SM -SHRA SCT025 OVC060
      TEMPO 1918/1921 2SM SHRA SCT015 BKN025
     FM192200 17010KT P6SM VCSH SCT025 BKN050
     FM200600 16015G25KT 6SM -RA SCT015 OVC040
     FM201100 16020G28KT 4SM RA SCT008 OVC020
     FM201700 16020G30KT 6SM -RA SCT015 OVC040=



000
FTUS46 KEKA 191744
TAFCEC
TAF
KCEC 191744Z 1918/2018 16009KT P6SM -SHRA SCT025 OVC060
      TEMPO 1918/1921 4SM SHRA BKN025
     FM192200 17010KT P6SM VCSH SCT025 BKN050
     FM200600 16015G25KT 6SM -RA SCT015 OVC040
     FM201100 16020G28KT 4SM RA SCT008 OVC020
     FM201700 16020G30KT 6SM -RA SCT015 OVC040=



000
FTUS46 KEKA 191744
TAFACV
TAF
KACV 191744Z 1918/2018 14007KT P6SM VCSH SCT050 BKN100
     FM192200 17008KT P6SM VCSH SCT050 BKN200
     FM200400 15008KT 6SM -RA BR SCT015 BKN040
     FM200900 15012G18KT 6SM -RA SCT015 BKN040
     FM201500 16012G20KT 6SM -RA SCT008 OVC020=



000
FTUS46 KEKA 191744
TAFUKI
TAF
KUKI 191744Z 1918/2018 26003KT P6SM FEW005 SCT050 BKN150
     FM201200 16003KT 6SM -RA SCT020 BKN040=



000
FTUS46 KEKA 191141
TAFCEC
TAF
KCEC 191141Z 1912/2012 17008KT P6SM -SHRA SCT025 OVC040
     FM192200 21007KT P6SM VCSH BKN050 OVC100=



000
FTUS46 KEKA 191141
TAFUKI
TAF
KUKI 191141Z 1912/2012 18008KT 5SM -RA BKN015 OVC030
     FM191400 16003KT 6SM -SHRA BKN030
     FM191800 13003KT P6SM SCT035 OVC050=



000
FTUS46 KEKA 191141
TAFACV
TAF
KACV 191141Z 1912/2012 17008KT P6SM -SHRA SCT025 OVC040
     FM191400 16007KT P6SM VCSH BKN050
     FM200200 14005KT P6SM OVC050=



000
FTUS46 KEKA 190634 AAA
TAFCEC
TAF AMD
KCEC 190634Z 1907/2006 19012KT 3SM RA BR FEW015 SCT025 OVC040
      WS020/19050KT
     FM190900 19011KT 5SM SHRA BR SCT025 OVC040
     FM191300 17008KT P6SM -SHRA BKN040
     FM192200 21007KT P6SM VCSH BKN050 OVC100=



000
FTUS46 KEKA 190605 AAA
TAFUKI
TAF AMD
KUKI 190605Z 1906/2006 17008G16KT 6SM -RA BKN025 OVC035
      WS020/19025KT
     FM190900 19008G20KT 3SM RA BKN015 OVC030
     FM191400 16003KT 6SM -SHRA BKN030
     FM191800 13003KT P6SM SCT035 OVC050
     FM200000 00000KT P6SM SCT050 OVC100=



000
FTUS46 KEKA 190541
TAFACV
TAF
KACV 190541Z 1906/2006 16012G22KT 4SM RA SCT025 OVC040
      WS020/19040KT
     FM191000 20008G15KT 6SM SHRA SCT025 OVC040
     FM191400 16007KT P6SM VCSH BKN050
     FM200200 14005KT P6SM OVC050=



000
FTUS46 KEKA 190541
TAFUKI
TAF
KUKI 190541Z 1906/2006 15008G16KT 6SM -RA SCT020 OVC035
      WS020/19025KT
     FM190900 19008G20KT 3SM RA BKN015 OVC030
     FM191400 16003KT 6SM -SHRA BKN030
     FM191800 13003KT P6SM SCT035 OVC050
     FM200000 00000KT P6SM SCT050 OVC100=



000
FTUS46 KEKA 190541
TAFCEC
TAF
KCEC 190541Z 1906/2006 19018G28KT 3SM +RA SCT025 OVC040
      WS020/19050KT
     FM190900 19014KT 3SM SHRA SCT025 OVC040
     FM191300 17008KT P6SM -SHRA BKN040
     FM192200 21007KT P6SM VCSH BKN050 OVC100=



000
FTUS46 KEKA 190338 AAA
TAFCEC
TAF AMD
KCEC 190338Z 1904/1924 16015G25KT 6SM -RA BR SCT025 OVC035
     FM190500 18018G28KT 3SM +RA BKN025 OVC040 WS020/19050KT
     FM190800 21015KT 3SM +SHRA OVC025
     FM191300 16008KT P6SM VCSH BKN040=



000
FTUS46 KEKA 190338 AAA
TAFCEC
TAF AMD
KCEC 190338Z 1904/1924 16015G25KT 6SM -RA BR SCT025 OVC035
     FM190500 18018G28KT 3SM +RA BKN025 OVC040 WS020/19050KT
     FM190800 21015KT 3SM +SHRA OVC025
     FM191300 16008KT P6SM VCSH BKN040=



000
FTUS46 KEKA 190226 AAA
TAFUKI
TAF AMD
KUKI 190226Z 1902/1924 15007G14KT P6SM VCSH SCT025 BKN035 OVC040
     FM190700 15005KT 4SM -RA SCT020 OVC030 WS020/19025KT
     FM191000 19007G20KT 2SM +RA OVC015
     FM191600 16003KT 6SM -SHRA BKN030=



000
FTUS46 KEKA 182332
TAFUKI
TAF
KUKI 182332Z 1900/1924 15008G15KT P6SM VCSH OVC040
     FM190700 15005KT 4SM -RA OVC030 WS020/19025KT
     FM191000 19007G20KT 2SM +RA OVC015
     FM191600 16003KT 6SM -SHRA BKN030=



000
FTUS46 KEKA 182332
TAFCEC
TAF
KCEC 182332Z 1900/1924 17015G25KT P6SM -SHRA OVC060
     FM190200 17020G32KT 6SM -RA BR SCT025 OVC035
     FM190500 18018G28KT 3SM +RA BKN025 OVC040 WS020/19050KT
     FM190800 21015KT 3SM +SHRA OVC025
     FM191300 16008KT P6SM VCSH BKN040=



000
FTUS46 KEKA 182332
TAFACV
TAF
KACV 182332Z 1900/1924 17009G17KT P6SM VCSH BKN060 OVC100
     FM190300 16010G20KT 6SM -RA BR SCT025 OVC040
     FM190600 16012G22KT 4SM RA BKN025 OVC040 WS020/19040KT
     FM191000 20008G15KT 6SM SHRA BKN025 OVC040
     FM191400 14005KT P6SM VCSH BKN050=



000
FTUS46 KEKA 182201 AAA
TAFACV
TAF AMD
KACV 182201Z 1822/1918 17010KT P6SM VCSH BKN060 OVC100
     FM190200 16015G24KT 6SM -RA BR SCT035 OVC050
     FM190600 16010G18KT 4SM RA BKN025 OVC040 WS020/19040KT
     FM191000 20008KT 6SM SHRA BKN025 OVC040
     FM191400 14005KT P6SM VCSH BKN050=



000
FTUS46 KEKA 182200 AAA
TAFCEC
TAF AMD
KCEC 182200Z 1822/1918 17015KT P6SM -SHRA OVC060
     FM190000 17020G32KT 6SM -RA BR SCT035 OVC050
     FM190500 18018G28KT 3SM +RA BKN025 OVC040 WS020/19050KT
     FM190900 21015KT 3SM +SHRA OVC025
     FM191300 16008KT P6SM VCSH BKN050=



000
FTUS46 KEKA 181740
TAFACV
TAF
KACV 181740Z 1818/1918 14010KT P6SM SCT060 BKN150
     FM182100 17010G20KT P6SM VCSH BKN060 OVC100
     FM190200 16015G24KT 6SM -RA BR SCT035 OVC050
     FM190600 16010G18KT 4SM RA BKN025 OVC040 WS020/19040KT
     FM191000 20008KT 6SM SHRA BKN025 OVC040
     FM191400 14005KT P6SM VCSH BKN050=



000
FTUS46 KEKA 181740
TAFUKI
TAF
KUKI 181740Z 1818/1918 VRB03KT P6SM SCT006 BKN024
     FM182000 15008G15KT P6SM SCT025 BKN120
     FM190700 15004KT 4SM -RA OVC030 WS020/19025KT
     FM191200 19007G20KT 2SM +RA OVC015
     FM191700 16003KT 6SM -SHRA BKN030=



000
FTUS46 KEKA 181740
TAFCEC
TAF
KCEC 181740Z 1818/1918 16015KT P6SM SCT035 BKN070 OVC120
     FM182100 16018G30KT P6SM -SHRA OVC050
     FM190000 17020G32KT 6SM -RA BR SCT035 OVC050
     FM190500 18018G28KT 3SM +RA BKN025 OVC040 WS020/19050KT
     FM190900 21015KT 3SM +SHRA OVC025
     FM191300 16008KT P6SM VCSH BKN050=



000
FTUS46 KEKA 181441 AAA
TAFUKI
TAF AMD
KUKI 181441Z 1815/1912 00000KT 6SM BR SCT005 OVC025
     FM181700 VRB03KT P6SM SCT002 BKN050
     FM182100 15005KT P6SM BKN050 OVC100
     FM190700 15004KT 4SM RA OVC025=



    US Dept of Commerce
    National Oceanic and Atmospheric Administration
    National Weather Service
    1325 East West Highway
    Silver Spring, MD 20910
    Page Author: NWS Internet Services Team
Disclaimer
Information Quality
Credits
Glossary
Privacy Policy
Freedom of Information Act (FOIA)
About Us
Career Opportunities